createdAt,value
2018-12-05T00:01:28.929Z,8.81
2018-12-05T00:03:57.374Z,8.71
2018-12-05T00:06:25.771Z,8.70
2018-12-05T00:08:54.248Z,8.71
2018-12-05T00:11:22.644Z,8.76
2018-12-05T00:13:51.136Z,8.75
2018-12-05T00:16:19.547Z,8.79
2018-12-05T00:18:47.983Z,8.79
2018-12-05T00:21:16.380Z,8.73
2018-12-05T00:23:45.069Z,8.79
2018-12-05T00:26:13.466Z,8.76
2018-12-05T00:28:41.897Z,8.74
2018-12-05T00:31:11.072Z,8.71
2018-12-05T00:33:39.495Z,8.70
2018-12-05T00:36:07.922Z,8.66
2018-12-05T00:38:36.360Z,8.75
2018-12-05T00:41:06.740Z,8.83
2018-12-05T00:43:35.188Z,8.86
2018-12-05T00:46:05.124Z,8.79
2018-12-05T00:48:33.545Z,8.74
2018-12-05T00:51:05.148Z,8.79
2018-12-05T00:53:33.577Z,8.70
2018-12-05T00:56:05.284Z,8.67
2018-12-05T00:58:33.721Z,8.63
2018-12-05T01:01:08.356Z,8.64
2018-12-05T01:03:36.996Z,8.63
2018-12-05T01:06:05.409Z,8.59
2018-12-05T01:08:33.807Z,8.62
2018-12-05T01:11:06.147Z,8.64
2018-12-05T01:13:34.610Z,8.59
2018-12-05T01:16:06.272Z,8.58
2018-12-05T01:18:34.666Z,8.64
2018-12-05T01:21:06.900Z,8.72
2018-12-05T01:23:35.304Z,8.70
2018-12-05T01:26:05.182Z,8.67
2018-12-05T01:28:33.625Z,8.64
2018-12-05T01:31:08.352Z,8.61
2018-12-05T01:33:36.773Z,8.63
2018-12-05T01:36:05.173Z,8.61
2018-12-05T01:38:33.588Z,8.64
2018-12-05T01:41:05.290Z,8.57
2018-12-05T01:43:39.021Z,8.70
2018-12-05T01:46:07.507Z,8.66
2018-12-05T01:48:35.972Z,8.66
2018-12-05T01:51:05.816Z,8.55
2018-12-05T01:53:34.256Z,8.60
2018-12-05T01:56:04.680Z,8.54
2018-12-05T01:58:33.108Z,8.54
2018-12-05T02:01:04.157Z,8.62
2018-12-05T02:03:32.569Z,8.50
2018-12-05T02:06:04.334Z,8.49
2018-12-05T02:08:32.739Z,8.49
2018-12-05T02:11:05.181Z,8.43
2018-12-05T02:13:33.569Z,8.44
2018-12-05T02:16:04.405Z,8.45
2018-12-05T04:25:11.509Z,8.26
2018-12-05T04:27:39.910Z,8.28
2018-12-05T04:30:08.580Z,8.34
2018-12-05T04:32:37.081Z,8.35
2018-12-05T04:35:05.701Z,8.36
2018-12-05T04:37:34.126Z,8.34
2018-12-05T04:40:04.432Z,8.31
2018-12-05T04:42:32.986Z,8.26
2018-12-05T04:45:04.948Z,8.25
2018-12-05T04:47:33.392Z,8.26
2018-12-05T04:50:03.652Z,8.19
2018-12-05T04:52:32.064Z,8.21
2018-12-05T04:55:00.462Z,8.27
2018-12-05T04:57:28.900Z,8.36
2018-12-05T04:59:57.290Z,8.31
2018-12-05T05:02:25.736Z,8.26
2018-12-05T05:04:54.132Z,8.12
2018-12-05T05:07:22.545Z,7.88
2018-12-05T05:09:50.936Z,7.74
2018-12-05T05:12:19.517Z,7.68
2018-12-05T05:14:47.902Z,7.72
2018-12-05T05:17:16.296Z,7.71
2018-12-05T05:19:44.715Z,7.73
2018-12-05T05:22:13.121Z,7.78
2018-12-05T05:24:41.550Z,7.88
2018-12-05T05:27:10.103Z,7.79
2018-12-05T05:29:38.521Z,7.72
2018-12-05T05:32:06.909Z,7.54
2018-12-05T05:34:35.318Z,7.41
2018-12-05T05:37:05.078Z,7.35
2018-12-05T05:39:33.469Z,7.33
2018-12-05T05:42:03.697Z,7.35
2018-12-05T05:44:32.084Z,7.33
2018-12-05T05:47:00.485Z,7.27
2018-12-05T05:49:28.910Z,7.12
2018-12-05T05:51:57.313Z,6.97
2018-12-05T05:54:25.728Z,6.83
2018-12-05T05:56:54.113Z,6.81
2018-12-05T05:59:22.518Z,6.81
2018-12-05T06:01:50.917Z,6.84
2018-12-05T06:04:19.365Z,6.89
2018-12-05T06:06:47.756Z,6.85
2018-12-05T06:09:16.195Z,6.76
2018-12-05T06:11:44.624Z,6.89
2018-12-05T06:14:13.048Z,7.07
2018-12-05T06:16:41.485Z,7.15
2018-12-05T06:19:09.929Z,7.28
2018-12-05T06:21:38.329Z,7.30
2018-12-05T06:24:07.077Z,7.44
2018-12-05T06:26:35.475Z,7.49
2018-12-05T06:29:05.122Z,7.46
2018-12-05T06:31:33.523Z,7.62
2018-12-05T06:34:03.632Z,7.73
2018-12-05T06:36:32.033Z,7.82
2018-12-05T06:39:00.464Z,7.82
2018-12-05T06:41:28.845Z,7.86
2018-12-05T06:43:57.236Z,8.00
2018-12-05T06:46:25.978Z,8.08
2018-12-05T06:48:54.389Z,8.08
2018-12-05T06:51:22.793Z,8.08
2018-12-05T06:53:51.224Z,7.95
2018-12-05T06:56:19.650Z,8.11
2018-12-05T06:58:48.028Z,8.11
2018-12-05T07:01:16.464Z,7.93
2018-12-05T07:03:44.849Z,7.74
2018-12-05T07:06:13.317Z,7.58
2018-12-05T07:08:41.719Z,7.72
2018-12-05T07:11:10.173Z,7.81
2018-12-05T07:13:38.583Z,7.80
2018-12-05T07:16:07.041Z,7.89
2018-12-05T07:18:35.833Z,7.89
2018-12-05T07:21:05.956Z,7.95
2018-12-05T07:23:34.413Z,7.87
2018-12-05T07:26:06.076Z,7.86
2018-12-05T07:28:34.479Z,7.56
2018-12-05T07:31:05.310Z,7.39
2018-12-05T07:33:35.324Z,7.29
2018-12-05T07:36:06.456Z,7.28
2018-12-05T07:38:39.183Z,7.18
2018-12-05T07:41:12.132Z,6.99
2018-12-05T07:43:41.358Z,6.85
2018-12-05T07:46:09.782Z,6.84
2018-12-05T07:48:38.246Z,6.79
2018-12-05T07:51:06.654Z,6.67
2018-12-05T07:53:35.117Z,6.58
2018-12-05T07:56:05.173Z,6.70
2018-12-05T07:58:33.597Z,6.77
2018-12-05T08:01:05.404Z,6.76
2018-12-05T08:03:33.793Z,6.77
2018-12-05T08:06:04.393Z,6.76
2018-12-05T08:08:32.959Z,6.69
2018-12-05T08:11:05.204Z,6.63
2018-12-05T08:13:33.625Z,6.59
2018-12-05T08:16:04.608Z,6.53
2018-12-05T08:18:33.049Z,6.53
2018-12-05T08:21:04.577Z,6.58
2018-12-05T08:23:33.020Z,6.66
2018-12-05T08:26:04.585Z,6.70
2018-12-05T08:28:32.989Z,6.83
2018-12-05T08:31:04.378Z,7.08
2018-12-05T08:33:33.409Z,7.27
2018-12-05T08:36:04.336Z,7.53
2018-12-05T08:38:32.780Z,7.54
2018-12-05T08:41:04.406Z,7.43
2018-12-05T08:43:32.812Z,7.51
2018-12-05T08:46:03.592Z,7.51
2018-12-05T08:48:32.053Z,7.42
2018-12-05T08:51:00.467Z,7.29
2018-12-05T08:53:28.903Z,7.13
2018-12-05T08:55:57.309Z,7.09
2018-12-05T08:58:25.753Z,7.10
2018-12-05T09:00:54.145Z,7.11
2018-12-05T09:03:22.585Z,7.21
2018-12-05T09:05:50.976Z,7.28
2018-12-05T09:08:19.401Z,7.40
2018-12-05T09:10:47.795Z,7.37
2018-12-05T09:13:16.238Z,7.33
2018-12-05T09:15:44.897Z,7.32
2018-12-05T09:18:13.309Z,7.42
2018-12-05T09:20:42.240Z,7.42
2018-12-05T09:23:10.656Z,7.35
2018-12-05T09:25:39.095Z,7.27
2018-12-05T09:28:07.498Z,7.19
2018-12-05T09:30:36.028Z,7.13
2018-12-05T09:33:05.082Z,7.12
2018-12-05T09:35:33.524Z,7.10
2018-12-05T09:38:04.341Z,7.16
2018-12-05T09:40:32.820Z,7.22
2018-12-05T09:43:03.566Z,7.30
2018-12-05T09:45:31.984Z,7.32
2018-12-05T09:48:00.377Z,7.37
2018-12-05T09:50:28.800Z,7.35
2018-12-05T09:52:57.203Z,7.42
2018-12-05T09:55:25.600Z,7.40
2018-12-05T09:57:54.042Z,7.46
2018-12-05T10:00:22.466Z,7.63
2018-12-05T10:02:50.873Z,7.78
2018-12-05T10:05:19.311Z,7.81
2018-12-05T10:07:47.705Z,7.75
2018-12-05T10:10:16.111Z,7.70
2018-12-05T10:12:44.567Z,7.62
2018-12-05T10:15:12.961Z,7.73
2018-12-05T10:17:42.794Z,7.90
2018-12-05T10:20:11.393Z,7.95
2018-12-05T10:22:39.878Z,7.90
2018-12-05T10:25:08.486Z,7.86
2018-12-05T10:27:36.902Z,7.91
2018-12-05T10:30:07.140Z,7.89
2018-12-05T10:32:35.584Z,7.84
2018-12-05T10:35:05.331Z,7.83
2018-12-05T10:37:33.780Z,7.85
2018-12-05T10:40:04.602Z,7.91
2018-12-05T10:42:33.300Z,8.01
2018-12-05T10:45:03.560Z,8.05
2018-12-05T10:47:31.968Z,8.17
2018-12-05T10:50:00.404Z,8.10
2018-12-05T10:52:29.057Z,7.93
2018-12-05T10:54:57.713Z,7.85
2018-12-05T10:57:26.250Z,7.82
2018-12-05T10:59:54.764Z,7.87
2018-12-05T11:02:28.604Z,8.06
2018-12-05T11:05:03.420Z,8.28
2018-12-05T11:07:37.057Z,8.34
2018-12-05T11:10:11.049Z,8.39
2018-12-05T11:12:45.558Z,8.43
2018-12-05T11:15:19.264Z,8.62
2018-12-05T11:18:56.639Z,8.60
2018-12-05T11:21:30.396Z,8.56
2018-12-05T11:24:04.945Z,8.44
2018-12-05T11:26:35.388Z,8.51
2018-12-05T11:29:05.201Z,8.54
2018-12-05T11:31:33.656Z,8.61
2018-12-05T11:34:04.553Z,8.51
2018-12-05T11:36:32.960Z,8.36
2018-12-05T11:39:04.329Z,8.20
2018-12-05T11:41:32.784Z,8.12
2018-12-05T11:44:04.565Z,8.28
2018-12-05T11:46:32.968Z,8.39
2018-12-05T11:49:03.792Z,8.33
2018-12-05T11:51:32.253Z,8.36
2018-12-05T11:54:00.688Z,8.33
2018-12-05T11:56:29.090Z,8.32
2018-12-05T11:58:57.541Z,8.46
2018-12-05T12:01:25.955Z,8.52
2018-12-05T12:03:54.633Z,8.62
2018-12-05T12:06:23.073Z,8.66
2018-12-05T12:08:51.471Z,8.71
2018-12-05T12:11:19.998Z,8.77
2018-12-05T12:13:48.559Z,8.83
2018-12-05T12:16:17.170Z,8.92
2018-12-05T12:18:45.592Z,8.85
2018-12-05T12:21:14.262Z,8.66
2018-12-05T12:23:42.662Z,8.40
2018-12-05T12:26:11.313Z,8.23
2018-12-05T12:28:39.869Z,8.05
2018-12-05T12:31:08.276Z,7.96
2018-12-05T12:33:36.665Z,7.93
2018-12-05T12:36:05.545Z,7.91
2018-12-05T12:38:33.933Z,7.91
2018-12-05T12:41:04.584Z,7.83
2018-12-05T12:43:33.031Z,7.77
2018-12-05T12:46:03.590Z,7.73
2018-12-05T12:48:32.961Z,7.71
2018-12-05T12:51:03.900Z,7.71
2018-12-05T12:53:32.650Z,7.68
2018-12-05T12:56:03.585Z,7.70
2018-12-05T12:58:31.997Z,7.66
2018-12-05T13:01:00.527Z,7.67
2018-12-05T13:03:29.087Z,7.65
2018-12-05T13:05:57.502Z,7.74
2018-12-05T13:08:25.889Z,7.73
2018-12-05T13:10:54.796Z,7.95
2018-12-05T13:13:23.197Z,8.09
2018-12-05T13:15:51.680Z,8.19
2018-12-05T13:18:20.092Z,8.22
2018-12-05T13:20:48.523Z,8.15
2018-12-05T13:23:16.924Z,8.07
2018-12-05T13:25:45.345Z,8.20
2018-12-05T13:28:13.744Z,8.26
2018-12-05T13:30:42.261Z,8.22
2018-12-05T13:33:10.669Z,8.17
2018-12-05T13:35:39.072Z,8.13
2018-12-05T13:38:07.568Z,8.37
2018-12-05T13:40:36.049Z,8.49
2018-12-05T13:43:05.105Z,8.60
2018-12-05T13:45:33.690Z,8.69
2018-12-05T13:48:05.382Z,8.68
2018-12-05T13:50:33.813Z,8.66
2018-12-05T13:53:04.659Z,8.65
2018-12-05T13:55:33.116Z,8.78
2018-12-05T13:58:04.369Z,8.87
2018-12-05T14:00:32.876Z,8.84
2018-12-05T14:03:03.775Z,8.86
2018-12-05T14:05:32.294Z,8.83
2018-12-05T14:08:00.726Z,8.95
2018-12-05T14:10:29.128Z,9.03
2018-12-05T14:12:59.404Z,8.87
2018-12-05T14:15:28.153Z,8.79
2018-12-05T14:18:01.404Z,8.62
2018-12-05T14:20:27.241Z,8.35
2018-12-05T14:22:55.684Z,8.19
2018-12-05T14:25:24.080Z,8.12
2018-12-05T14:27:52.509Z,8.15
2018-12-05T14:30:21.045Z,8.27
2018-12-05T14:32:49.802Z,8.32
2018-12-05T14:35:18.201Z,8.38
2018-12-05T14:37:46.591Z,8.16
2018-12-05T14:40:15.419Z,8.07
2018-12-05T14:42:43.814Z,8.12
2018-12-05T14:45:12.372Z,7.99
2018-12-05T14:47:40.753Z,7.87
2018-12-05T14:50:09.310Z,7.79
2018-12-05T14:52:37.754Z,7.76
2018-12-05T14:55:06.288Z,7.86
2018-12-05T14:57:34.736Z,7.80
2018-12-05T15:00:05.629Z,7.75
2018-12-05T15:02:34.120Z,7.67
2018-12-05T15:05:04.497Z,7.62
2018-12-05T15:07:32.944Z,7.60
2018-12-05T15:10:04.421Z,7.38
2018-12-05T15:12:32.852Z,7.29
2018-12-05T15:15:03.634Z,7.27
2018-12-05T15:17:32.080Z,7.24
2018-12-05T15:20:00.477Z,7.23
2018-12-05T15:22:29.001Z,7.25
2018-12-05T15:24:57.443Z,7.28
2018-12-05T15:27:25.868Z,7.26
2018-12-05T15:29:54.262Z,7.28
2018-12-05T15:32:22.658Z,7.50
2018-12-05T15:34:52.218Z,7.50
2018-12-05T15:37:20.894Z,7.63
2018-12-05T15:39:49.311Z,7.72
2018-12-05T15:42:17.749Z,7.90
2018-12-05T15:44:46.160Z,8.09
2018-12-05T15:47:14.601Z,8.22
2018-12-05T15:49:43.006Z,8.27
2018-12-05T15:52:11.448Z,8.10
2018-12-05T15:54:41.121Z,7.89
2018-12-05T15:57:10.329Z,7.70
2018-12-05T15:59:39.393Z,7.67
2018-12-05T16:02:07.985Z,7.76
2018-12-05T16:04:36.369Z,7.76
2018-12-05T16:07:05.470Z,7.76
2018-12-05T16:09:33.865Z,7.73
2018-12-05T16:12:05.428Z,7.59
2018-12-05T16:14:33.808Z,7.48
2018-12-05T16:17:05.592Z,7.40
2018-12-05T16:19:34.063Z,7.35
2018-12-05T16:22:05.483Z,7.17
2018-12-05T16:24:33.972Z,7.08
2018-12-05T16:27:04.445Z,7.07
2018-12-05T16:29:32.841Z,7.01
2018-12-05T16:32:05.410Z,7.08
2018-12-05T16:34:33.827Z,7.20
2018-12-05T16:37:04.577Z,7.31
2018-12-05T16:39:33.029Z,7.27
2018-12-05T16:42:03.706Z,7.24
2018-12-05T16:44:32.117Z,7.23
2018-12-05T16:47:00.566Z,7.13
2018-12-05T16:49:28.969Z,6.99
2018-12-05T16:51:57.432Z,6.85
2018-12-05T16:54:26.506Z,6.80
2018-12-05T16:56:54.969Z,6.77
2018-12-05T16:59:23.394Z,6.84
2018-12-05T17:01:51.907Z,6.78
2018-12-05T17:04:20.406Z,6.71
2018-12-05T17:06:48.919Z,6.71
2018-12-05T17:09:17.405Z,6.72
2018-12-05T17:11:45.852Z,6.69
2018-12-05T17:14:14.273Z,6.65
2018-12-05T17:16:43.009Z,6.66
2018-12-05T17:19:11.438Z,6.62
2018-12-05T17:21:39.907Z,6.67
2018-12-05T17:24:08.322Z,6.71
2018-12-05T17:26:36.794Z,6.62
2018-12-05T17:29:05.213Z,6.58
2018-12-05T17:31:33.672Z,6.65
2018-12-05T17:34:04.619Z,6.71
2018-12-05T17:36:33.301Z,6.78
2018-12-05T17:39:04.387Z,6.76
2018-12-05T17:41:32.865Z,6.79
2018-12-05T17:44:03.484Z,6.77
2018-12-05T17:46:31.934Z,6.78
2018-12-05T17:49:00.353Z,6.98
2018-12-05T17:51:28.765Z,7.08
2018-12-05T17:53:57.858Z,7.13
2018-12-05T17:56:26.276Z,7.14
2018-12-05T17:58:54.757Z,7.00
2018-12-05T18:01:23.238Z,6.81
2018-12-05T18:03:51.655Z,6.73
2018-12-05T18:06:20.238Z,6.73
2018-12-05T18:08:48.668Z,6.73
2018-12-05T18:11:17.213Z,6.68
2018-12-05T18:13:45.625Z,6.70
2018-12-05T18:16:14.119Z,6.68
2018-12-05T18:18:42.577Z,6.66
2018-12-05T18:21:11.145Z,6.63
2018-12-05T18:23:39.608Z,6.69
2018-12-05T18:26:08.020Z,6.66
2018-12-05T18:28:36.497Z,6.64
2018-12-05T18:31:05.933Z,6.74
2018-12-05T18:33:35.150Z,6.87
2018-12-05T18:36:05.359Z,7.09
2018-12-05T18:38:34.266Z,7.27
2018-12-05T18:41:06.175Z,7.48
2018-12-05T18:43:34.630Z,7.65
2018-12-05T18:46:06.044Z,7.82
2018-12-05T18:48:34.465Z,7.84
2018-12-05T18:51:06.805Z,7.72
2018-12-05T18:53:35.218Z,7.60
2018-12-05T18:56:05.337Z,7.61
2018-12-05T18:58:33.762Z,7.72
2018-12-05T19:01:06.089Z,7.84
2018-12-05T19:03:34.536Z,7.79
2018-12-05T19:06:06.084Z,7.92
2018-12-05T19:08:34.747Z,7.66
2018-12-05T19:11:05.994Z,7.54
2018-12-05T19:13:38.581Z,7.45
2018-12-05T19:16:07.230Z,7.30
2018-12-05T19:18:35.661Z,7.14
2018-12-05T19:21:06.947Z,7.01
2018-12-05T19:23:35.406Z,6.98
2018-12-05T19:26:05.116Z,6.99
2018-12-05T19:28:33.534Z,6.92
2018-12-05T19:31:04.434Z,6.83
2018-12-05T19:33:32.860Z,7.01
2018-12-05T19:36:04.183Z,7.14
2018-12-05T19:38:32.737Z,7.34
2018-12-05T19:41:05.847Z,7.51
2018-12-05T19:43:34.474Z,7.60
2018-12-05T19:46:06.137Z,7.56
2018-12-05T19:48:34.533Z,7.56
2018-12-05T19:51:06.886Z,7.51
2018-12-05T19:53:35.309Z,7.44
2018-12-05T19:56:06.825Z,7.36
2018-12-05T19:58:35.222Z,7.43
2018-12-05T20:01:05.078Z,7.49
2018-12-05T20:03:33.551Z,7.41
2018-12-05T20:06:03.672Z,7.22
2018-12-05T20:08:32.085Z,7.01
2018-12-05T20:11:00.537Z,6.89
2018-12-05T20:13:28.951Z,6.80
2018-12-05T20:15:57.466Z,6.73
2018-12-05T20:18:25.881Z,6.70
2018-12-05T20:20:54.341Z,6.76
2018-12-05T20:23:22.753Z,6.92
2018-12-05T20:25:51.283Z,7.00
2018-12-05T20:28:19.738Z,7.10
2018-12-05T20:30:48.185Z,7.05
2018-12-05T20:33:16.592Z,6.96
2018-12-05T20:35:45.058Z,6.88
2018-12-05T20:38:13.468Z,6.66
2018-12-05T20:40:42.785Z,6.56
2018-12-05T20:43:11.202Z,6.54
2018-12-05T20:45:39.634Z,6.46
2018-12-05T20:48:08.221Z,6.43
2018-12-05T20:50:36.665Z,6.33
2018-12-05T20:53:06.581Z,6.33
2018-12-05T20:55:35.036Z,6.39
2018-12-05T20:58:06.108Z,6.48
2018-12-05T21:00:34.681Z,6.51
2018-12-05T21:03:05.292Z,6.49
2018-12-05T21:05:33.924Z,6.39
2018-12-05T21:08:04.606Z,6.30
2018-12-05T21:10:33.109Z,6.26
2018-12-05T21:13:03.616Z,6.16
2018-12-05T21:15:32.081Z,6.18
2018-12-05T21:18:00.551Z,6.23
2018-12-05T21:20:29.008Z,6.31
2018-12-05T21:22:57.420Z,6.26
2018-12-05T21:25:25.881Z,6.19
2018-12-05T21:27:54.338Z,6.14
2018-12-05T21:30:22.845Z,6.16
2018-12-05T21:32:51.629Z,6.13
2018-12-05T21:35:20.049Z,6.18
2018-12-05T21:37:48.470Z,6.25
2018-12-05T21:40:17.173Z,6.28
2018-12-05T21:42:45.581Z,6.44
2018-12-05T21:45:14.267Z,6.55
2018-12-05T21:47:42.817Z,6.60
2018-12-05T21:50:11.340Z,6.56
2018-12-05T21:52:39.774Z,6.61
2018-12-05T21:55:08.569Z,6.68
2018-12-05T21:57:36.986Z,6.55
2018-12-05T22:00:10.341Z,6.60
2018-12-05T22:02:39.365Z,6.87
2018-12-05T22:05:07.937Z,7.00
2018-12-05T22:07:37.054Z,6.92
2018-12-05T22:10:07.584Z,6.91
2018-12-05T22:12:36.040Z,6.88
2018-12-05T22:15:06.390Z,6.84
2018-12-05T22:17:34.885Z,6.68
2018-12-05T22:20:06.109Z,6.60
2018-12-05T22:22:34.557Z,6.47
2018-12-05T22:25:05.334Z,6.44
2018-12-05T22:27:33.736Z,6.46
2018-12-05T22:30:04.873Z,6.41
2018-12-05T22:32:33.288Z,6.40
2018-12-05T22:35:04.637Z,6.32
2018-12-05T22:37:33.097Z,6.55
2018-12-05T22:40:03.648Z,6.68
2018-12-05T22:42:32.118Z,6.63
2018-12-05T22:45:00.532Z,6.46
2018-12-05T22:47:28.988Z,6.57
2018-12-05T22:49:57.402Z,6.71
2018-12-05T22:52:25.836Z,6.81
2018-12-05T22:54:54.273Z,6.85
2018-12-05T22:57:22.742Z,7.00
2018-12-05T22:59:51.153Z,7.08
2018-12-05T23:02:19.550Z,7.00
2018-12-05T23:04:48.001Z,6.82
2018-12-05T23:07:16.453Z,6.62
2018-12-05T23:09:44.865Z,6.51
2018-12-05T23:12:13.326Z,6.71
2018-12-05T23:14:41.722Z,6.82
2018-12-05T23:17:10.277Z,6.98
2018-12-05T23:19:38.673Z,6.86
2018-12-05T23:22:07.126Z,6.68
2018-12-05T23:24:35.548Z,6.75
2018-12-05T23:27:05.996Z,6.88
2018-12-05T23:29:34.396Z,6.89
2018-12-05T23:32:05.199Z,6.87
2018-12-05T23:34:33.588Z,7.10
2018-12-05T23:37:04.537Z,7.00
2018-12-05T23:39:32.936Z,6.90
2018-12-05T23:42:03.546Z,6.80
2018-12-05T23:44:31.953Z,6.85
2018-12-05T23:47:00.800Z,6.98
2018-12-05T23:49:29.207Z,7.09
2018-12-05T23:51:57.645Z,7.16
2018-12-05T23:54:26.060Z,7.23
2018-12-05T23:56:54.493Z,7.24
2018-12-05T23:59:22.896Z,7.28
